Time;durP1;ratioP1;P1;durP2;ratioP2;P2;SDS_P1;SDS_P2;PMS_P1;PMS_P2;Temp;Humidity;BMP_temperature;BMP_pressure;BME280_temperature;BME280_humidity;BME280_pressure;Samples;Min_cycle;Max_cycle;Signal;HPM_P1;HPM_P2
2021/04/21 00:02:29;;;;;;;23.60;12.60;;;3.60;99.90;;;;;;8328009;28;20026;-64
2021/04/21 00:06:30;;;;;;;28.65;16.05;;;3.40;99.90;;;;;;8329157;28;20026;-64
2021/04/21 00:10:31;;;;;;;26.17;14.15;;;3.00;99.90;;;;;;8327632;28;20488;-65
2021/04/21 00:14:31;;;;;;;25.42;13.75;;;2.90;99.90;;;;;;8328764;28;20041;-64
2021/04/21 00:18:36;;;;;;;26.55;14.73;;;3.10;99.90;;;;;;8328364;28;20053;-64
2021/04/21 00:22:39;;;;;;;25.70;13.90;;;3.40;99.90;;;;;;8327247;28;20672;-64
2021/04/21 00:26:40;;;;;;;25.15;13.40;;;3.00;99.90;;;;;;8327267;28;20075;-64
2021/04/21 00:30:43;;;;;;;23.40;12.35;;;2.80;99.90;;;;;;8327356;28;20408;-64
2021/04/21 00:34:45;;;;;;;24.13;12.38;;;2.70;99.90;;;;;;8327990;28;20072;-65
2021/04/21 00:38:48;;;;;;;25.25;13.77;;;2.80;99.90;;;;;;8321890;28;20025;-64
2021/04/21 00:43:05;;;;;;;23.10;12.93;;;2.80;99.90;;;;;;8295058;28;20030;-64
2021/04/21 00:47:09;;;;;;;22.98;13.65;;;2.50;99.90;;;;;;8323352;28;20021;-65
2021/04/21 00:51:21;;;;;;;27.27;12.95;;;2.20;99.90;;;;;;8326199;28;20090;-65
2021/04/21 00:55:32;;;;;;;25.92;13.68;;;2.10;99.90;;;;;;8325846;28;20029;-64
2021/04/21 00:59:57;;;;;;;22.05;12.40;;;2.40;99.90;;;;;;8327445;28;20112;-64
2021/04/21 01:03:57;;;;;;;26.55;13.10;;;2.50;99.90;;;;;;8327141;28;20029;-64
2021/04/21 01:08:02;;;;;;;26.63;13.70;;;2.60;99.90;;;;;;8326746;28;20033;-64
2021/04/21 01:12:07;;;;;;;22.92;13.38;;;2.70;99.90;;;;;;8327051;28;20036;-64
2021/04/21 01:16:09;;;;;;;28.58;14.85;;;2.80;99.90;;;;;;8326619;28;20529;-64
2021/04/21 01:20:30;;;;;;;26.13;14.05;;;2.50;99.90;;;;;;8326653;28;20025;-64
2021/04/21 01:24:36;;;;;;;;;;;2.30;99.90;;;;;;8324982;28;20021;-64
2021/04/21 01:28:46;;;;;;;22.17;12.55;;;2.20;99.90;;;;;;8326600;28;19959;-65
2021/04/21 01:32:49;;;;;;;22.55;13.20;;;2.10;99.90;;;;;;8324668;28;20060;-64
2021/04/21 01:36:52;;;;;;;25.15;12.48;;;2.20;99.90;;;;;;8326129;28;20488;-64
2021/04/21 01:40:56;;;;;;;23.98;13.35;;;2.10;99.90;;;;;;8326192;28;20032;-64
2021/04/21 01:45:00;;;;;;;24.95;13.65;;;2.20;99.90;;;;;;8325617;28;20185;-64
2021/04/21 01:49:17;;;;;;;21.98;12.15;;;2.00;99.90;;;;;;8326036;28;20022;-64
2021/04/21 01:53:35;;;;;;;25.73;14.23;;;1.70;99.90;;;;;;8325756;28;20029;-64
2021/04/21 01:57:52;;;;;;;24.40;12.52;;;1.60;99.90;;;;;;8324628;28;20040;-64
2021/04/21 02:01:57;;;;;;;24.70;14.02;;;1.80;99.90;;;;;;8324683;28;20029;-64
2021/04/21 02:06:26;;;;;;;28.33;14.85;;;1.90;99.90;;;;;;8325713;28;20022;-64
2021/04/21 02:10:50;;;;;;;26.48;14.98;;;1.60;99.90;;;;;;8324602;28;20060;-64
2021/04/21 02:15:07;;;;;;;29.33;15.07;;;1.60;99.90;;;;;;8324078;28;20636;-64
2021/04/21 02:19:18;;;;;;;27.33;14.25;;;1.90;99.90;;;;;;8325512;28;20033;-65
2021/04/21 02:23:32;;;;;;;28.48;13.25;;;2.00;99.90;;;;;;8325237;28;20030;-64
2021/04/21 02:27:58;;;;;;;28.10;15.63;;;1.90;99.90;;;;;;8324113;28;20483;-65
2021/04/21 02:32:30;;;;;;;27.27;14.10;;;1.80;99.90;;;;;;8325314;28;20028;-64
2021/04/21 02:36:44;;;;;;;29.00;14.63;;;1.40;99.90;;;;;;8330068;28;20080;-64
2021/04/21 02:41:09;;;;;;;33.30;15.48;;;1.30;99.90;;;;;;8331336;28;20053;-64
2021/04/21 02:45:19;;;;;;;32.50;15.63;;;1.10;99.90;;;;;;8331318;28;20021;-64
2021/04/21 02:49:45;;;;;;;31.50;16.08;;;1.10;99.90;;;;;;8331163;28;20434;-64
2021/04/21 02:54:08;;;;;;;32.63;16.40;;;1.10;99.90;;;;;;8331075;28;20542;-64
2021/04/21 02:58:34;;;;;;;30.42;15.63;;;1.00;99.90;;;;;;8331106;28;20099;-64
2021/04/21 03:02:40;;;;;;;32.00;16.33;;;1.30;99.90;;;;;;8330814;28;20032;-64
2021/04/21 03:06:47;;;;;;;30.98;13.82;;;1.10;99.90;;;;;;8330983;28;20025;-64
2021/04/21 03:10:58;;;;;;;28.95;14.77;;;1.00;99.90;;;;;;8328856;28;20037;-64
2021/04/21 03:15:04;;;;;;;28.35;14.85;;;1.10;99.90;;;;;;8329829;28;20060;-64
2021/04/21 03:19:07;;;;;;;30.05;15.75;;;1.30;99.90;;;;;;8330086;28;20031;-64
2021/04/21 03:23:12;;;;;;;29.25;14.43;;;1.20;99.90;;;;;;8330262;28;20033;-64
2021/04/21 03:27:14;;;;;;;28.38;14.43;;;1.20;99.90;;;;;;8329005;28;20022;-64
2021/04/21 03:31:16;;;;;;;28.77;14.65;;;1.30;99.90;;;;;;8330426;28;20022;-63
2021/04/21 03:35:18;;;;;;;31.55;16.30;;;1.30;99.90;;;;;;8329677;28;20122;-64
2021/04/21 03:39:18;;;;;;;31.05;15.88;;;1.00;99.90;;;;;;8328545;28;20056;-64
2021/04/21 03:43:20;;;;;;;30.80;15.23;;;1.00;99.90;;;;;;8329989;28;20056;-64
2021/04/21 03:47:21;;;;;;;30.38;14.27;;;1.00;99.90;;;;;;8329089;28;20036;-64
2021/04/21 03:51:23;;;;;;;30.05;14.23;;;1.00;99.90;;;;;;8329792;28;20025;-64
2021/04/21 03:55:24;;;;;;;32.40;15.10;;;0.90;99.90;;;;;;8329522;28;20072;-64
2021/04/21 03:59:27;;;;;;;31.63;16.02;;;0.90;99.90;;;;;;8329549;28;20037;-64
2021/04/21 04:03:28;;;;;;;36.90;16.50;;;1.00;99.90;;;;;;8325266;28;20532;-64
2021/04/21 04:07:35;;;;;;;33.53;15.50;;;0.90;99.90;;;;;;8327955;28;20040;-64
2021/04/21 04:11:45;;;;;;;31.30;16.33;;;1.00;99.90;;;;;;8328668;28;20540;-64
2021/04/21 04:15:49;;;;;;;30.00;15.35;;;1.00;99.90;;;;;;8327375;28;20029;-64
2021/04/21 04:19:52;;;;;;;30.88;16.20;;;1.10;99.90;;;;;;8321157;28;20045;-64
2021/04/21 04:23:55;;;;;;;27.33;13.63;;;1.00;99.90;;;;;;8314114;28;20027;-64
2021/04/21 04:27:58;;;;;;;28.90;15.57;;;2.70;99.90;;;;;;8326434;28;20033;-64
2021/04/21 04:32:02;;;;;;;34.92;18.30;;;2.70;99.90;;;;;;8325907;28;20500;-64
2021/04/21 04:36:03;;;;;;;30.35;15.68;;;4.10;99.90;;;;;;8304628;28;20492;-64
2021/04/21 04:40:05;;;;;;;31.13;16.38;;;4.10;99.90;;;;;;8295373;28;20062;-64
2021/04/21 04:44:06;;;;;;;35.33;16.15;;;4.30;99.90;;;;;;8298912;28;20017;-64
2021/04/21 04:48:14;;;;;;;27.83;14.43;;;3.60;99.90;;;;;;8323980;28;20064;-64
2021/04/21 04:52:18;;;;;;;27.48;15.30;;;2.90;99.90;;;;;;8327698;28;20049;-64
2021/04/21 04:56:20;;;;;;;32.40;16.38;;;2.40;99.90;;;;;;8326358;28;20466;-64
2021/04/21 05:00:23;;;;;;;32.75;16.75;;;1.90;99.90;;;;;;8327673;28;20041;-64
2021/04/21 05:04:38;;;;;;;32.20;17.70;;;1.80;99.90;;;;;;8327011;28;20180;-64
2021/04/21 05:08:48;;;;;;;31.77;16.35;;;1.80;99.90;;;;;;8327597;28;20044;-64
2021/04/21 05:12:51;;;;;;;32.00;17.85;;;2.00;99.90;;;;;;8320526;28;20037;-64
2021/04/21 05:17:00;;;;;;;28.60;15.50;;;2.20;99.90;;;;;;8304581;28;20038;-64
2021/04/21 05:21:24;;;;;;;27.83;16.00;;;2.10;99.90;;;;;;8319916;28;20056;-64
2021/04/21 05:25:48;;;;;;;31.88;15.57;;;2.30;99.90;;;;;;8323832;28;20055;-64
2021/04/21 05:30:13;;;;;;;29.90;16.90;;;2.50;99.90;;;;;;8304321;28;20033;-64
2021/04/21 05:34:42;;;;;;;34.22;16.90;;;2.60;99.90;;;;;;8309389;28;20029;-68
2021/04/21 05:39:34;;;;;;;31.45;16.77;;;2.70;99.90;;;;;;8326211;28;20100;-68
2021/04/21 05:43:40;;;;;;;34.25;17.27;;;3.00;99.90;;;;;;8288648;28;20528;-68
2021/04/21 05:48:02;;;;;;;32.75;18.02;;;3.40;99.90;;;;;;8323135;28;20040;-68
2021/04/21 05:52:30;;;;;;;31.92;17.65;;;3.80;99.90;;;;;;8320607;28;20032;-68
2021/04/21 05:56:52;;;;;;;33.33;18.02;;;4.20;99.90;;;;;;8318015;28;20114;-63
2021/04/21 06:01:05;;;;;;;33.58;18.75;;;4.40;99.90;;;;;;8308073;28;20025;-61
2021/04/21 06:05:09;;;;;;;32.70;18.98;;;4.80;99.90;;;;;;8322809;28;20373;-62
2021/04/21 06:09:11;;;;;;;32.75;19.20;;;5.20;99.90;;;;;;8320696;28;20392;-61
2021/04/21 06:13:12;;;;;;;34.00;19.08;;;5.60;99.90;;;;;;8323152;28;20099;-62
2021/04/21 06:17:13;;;;;;;29.50;17.70;;;6.00;99.90;;;;;;8324637;28;20381;-62
2021/04/21 06:21:21;;;;;;;34.63;17.88;;;6.10;99.90;;;;;;8323475;28;20025;-62
2021/04/21 06:25:22;;;;;;;36.80;18.85;;;6.20;99.90;;;;;;8325533;28;20021;-62
2021/04/21 06:29:27;;;;;;;34.95;19.15;;;6.50;99.90;;;;;;8312989;28;20100;-63
2021/04/21 06:33:35;;;;;;;30.65;18.23;;;6.60;99.90;;;;;;8308773;28;20030;-62
2021/04/21 06:37:37;;;;;;;30.85;18.98;;;6.80;99.90;;;;;;8308111;28;20037;-62
2021/04/21 06:41:38;;;;;;;38.28;19.77;;;7.10;99.90;;;;;;8308114;28;20037;-61
2021/04/21 06:45:38;;;;;;;29.02;16.55;;;7.30;99.90;;;;;;8311085;28;20037;-62
2021/04/21 06:49:39;;;;;;;27.48;16.10;;;7.60;99.90;;;;;;8308916;28;20026;-60
2021/04/21 06:53:40;;;;;;;27.13;16.60;;;7.90;99.90;;;;;;8300651;28;20088;-63
2021/04/21 06:57:42;;;;;;;30.67;16.52;;;8.20;99.90;;;;;;8296641;28;20037;-62
2021/04/21 07:01:50;;;;;;;28.25;16.13;;;8.50;99.90;;;;;;8301339;28;20463;-62
2021/04/21 07:05:51;;;;;;;27.85;16.85;;;9.00;99.90;;;;;;8307530;28;20022;-63
2021/04/21 07:09:53;;;;;;;23.42;15.68;;;9.30;99.90;;;;;;8307940;28;20029;-63
2021/04/21 07:13:54;;;;;;;25.27;15.73;;;9.60;99.90;;;;;;8309875;28;20511;-62
2021/04/21 07:17:55;;;;;;;24.05;15.15;;;9.90;99.90;;;;;;8304507;28;20044;-63
2021/04/21 07:21:57;;;;;;;23.00;15.13;;;10.20;99.90;;;;;;8310408;28;20017;-62
2021/04/21 07:25:57;;;;;;;22.80;14.80;;;10.50;99.90;;;;;;8310358;28;20033;-62
2021/04/21 07:29:58;;;;;;;21.30;13.45;;;10.80;99.90;;;;;;8314090;28;20049;-62
2021/04/21 07:33:59;;;;;;;20.70;13.85;;;11.20;99.90;;;;;;8314665;28;20544;-62
2021/04/21 07:38:00;;;;;;;19.77;13.27;;;11.30;99.90;;;;;;8311930;28;20416;-63
2021/04/21 07:42:02;;;;;;;20.35;12.57;;;11.40;99.90;;;;;;8309578;28;20076;-64
2021/04/21 07:46:02;;;;;;;18.95;12.75;;;11.50;99.90;;;;;;8313879;28;20041;-64
2021/04/21 07:50:05;;;;;;;17.08;11.38;;;11.70;99.90;;;;;;8312772;28;20021;-63
2021/04/21 07:54:19;;;;;;;19.77;13.10;;;11.70;99.90;;;;;;8300369;28;20037;-63
2021/04/21 07:58:23;;;;;;;15.60;11.00;;;12.00;99.90;;;;;;8323514;28;20172;-63
2021/04/21 08:02:24;;;;;;;16.27;11.00;;;12.30;99.90;;;;;;8325336;28;20163;-62
2021/04/21 08:06:41;;;;;;;14.27;9.70;;;12.60;99.90;;;;;;8304870;28;20029;-62
2021/04/21 08:10:48;;;;;;;13.90;9.30;;;12.70;99.90;;;;;;8317695;28;20439;-63
2021/04/21 08:14:51;;;;;;;10.88;7.78;;;12.90;99.90;;;;;;8298421;28;20108;-63
2021/04/21 08:18:54;;;;;;;10.98;7.75;;;13.30;99.90;;;;;;8306855;28;20033;-62
2021/04/21 08:23:05;;;;;;;10.48;7.65;;;13.40;99.90;;;;;;8327268;28;20353;-62
2021/04/21 08:27:08;;;;;;;11.98;8.70;;;13.50;99.90;;;;;;8311722;28;20083;-63
2021/04/21 08:31:08;;;;;;;11.73;8.02;;;13.70;99.90;;;;;;8320095;28;20492;-63
2021/04/21 08:35:11;;;;;;;11.93;9.00;;;13.80;99.90;;;;;;8313256;28;20124;-62
2021/04/21 08:39:12;;;;;;;9.25;7.25;;;13.80;99.90;;;;;;8316737;28;20029;-63
2021/04/21 08:43:15;;;;;;;12.40;8.95;;;14.30;99.90;;;;;;8310476;28;20029;-63
2021/04/21 08:47:16;;;;;;;11.90;7.90;;;14.60;99.90;;;;;;8302385;28;20769;-62
2021/04/21 08:51:18;;;;;;;11.05;7.88;;;14.90;99.90;;;;;;8294545;28;20476;-63
2021/04/21 08:55:19;;;;;;;9.93;7.13;;;14.90;99.90;;;;;;8294347;28;20400;-63
2021/04/21 08:59:20;;;;;;;10.65;7.45;;;15.00;98.90;;;;;;8294309;28;20040;-62
2021/04/21 09:03:21;;;;;;;8.70;6.70;;;14.90;97.10;;;;;;8307209;28;20056;-62
2021/04/21 09:07:22;;;;;;;12.23;8.45;;;14.70;93.90;;;;;;8314273;28;20836;-62
2021/04/21 09:11:24;;;;;;;11.80;7.47;;;14.30;95.80;;;;;;8302032;28;20022;-62
2021/04/21 09:15:24;;;;;;;10.90;8.48;;;14.60;98.40;;;;;;8297230;28;20049;-62
2021/04/21 09:19:25;;;;;;;15.13;9.00;;;15.00;97.80;;;;;;8301614;28;20022;-63
2021/04/21 09:23:35;;;;;;;11.40;8.68;;;15.40;99.50;;;;;;8305772;28;20026;-67
2021/04/21 09:27:35;;;;;;;10.93;8.70;;;15.90;98.90;;;;;;8307217;28;20084;-67
2021/04/21 09:31:36;;;;;;;11.63;8.45;;;15.90;97.30;;;;;;8309276;28;20555;-67
2021/04/21 09:35:40;;;;;;;10.55;8.55;;;16.20;99.30;;;;;;8300433;28;20132;-69
2021/04/21 09:39:41;;;;;;;12.18;8.50;;;16.30;99.30;;;;;;8322734;28;20141;-67
2021/04/21 09:43:42;;;;;;;10.73;8.55;;;16.70;98.30;;;;;;8317076;28;20105;-67
2021/04/21 09:47:43;;;;;;;11.65;8.32;;;16.80;94.50;;;;;;8296166;28;20034;-67
2021/04/21 09:51:43;;;;;;;9.48;7.28;;;16.20;94.00;;;;;;8302271;28;20512;-67
2021/04/21 09:56:01;;;;;;;10.02;7.75;;;16.40;92.80;;;;;;8318423;28;20373;-67
2021/04/21 10:00:06;;;;;;;10.80;7.65;;;17.00;93.60;;;;;;8307385;28;20030;-67
2021/04/21 10:04:10;;;;;;;9.13;7.68;;;17.30;92.70;;;;;;8309436;28;20026;-67
2021/04/21 10:08:21;;;;;;;10.75;7.32;;;17.30;91.40;;;;;;8309245;28;20018;-67
2021/04/21 10:12:32;;;;;;;8.93;7.25;;;18.00;92.40;;;;;;8312410;28;20064;-67
2021/04/21 10:16:33;;;;;;;12.02;8.02;;;18.00;89.40;;;;;;8318858;28;20041;-67
2021/04/21 10:20:33;;;;;;;9.30;8.18;;;17.90;90.00;;;;;;8309071;28;20075;-63
2021/04/21 10:24:34;;;;;;;10.18;8.20;;;18.10;82.80;;;;;;8305255;28;20042;-62
2021/04/21 10:28:37;;;;;;;10.45;8.30;;;17.40;79.20;;;;;;8308061;28;20038;-62
2021/04/21 10:32:38;;;;;;;10.07;7.63;;;16.60;81.00;;;;;;8311021;28;20213;-63
2021/04/21 10:36:41;;;;;;;9.75;8.07;;;17.00;85.40;;;;;;8323215;28;20033;-63
2021/04/21 10:40:42;;;;;;;10.60;8.20;;;17.30;80.90;;;;;;8306448;28;20041;-62
2021/04/21 10:44:47;;;;;;;9.38;7.97;;;16.80;84.70;;;;;;8310291;28;20137;-63
2021/04/21 10:48:48;;;;;;;11.13;8.85;;;17.30;87.60;;;;;;8311757;28;20484;-62
2021/04/21 10:52:48;;;;;;;10.77;8.90;;;16.70;80.50;;;;;;8307840;28;20030;-63
2021/04/21 10:56:49;;;;;;;10.27;8.05;;;16.10;82.60;;;;;;8298819;28;20042;-63
2021/04/21 11:00:51;;;;;;;8.60;7.35;;;16.30;86.00;;;;;;8304593;28;20438;-63
2021/04/21 11:05:17;;;;;;;11.10;7.78;;;16.80;91.30;;;;;;8308305;28;20055;-63
2021/04/21 11:09:17;;;;;;;11.88;8.00;;;18.60;86.10;;;;;;8326470;28;20033;-63
2021/04/21 11:13:23;;;;;;;11.80;8.48;;;18.90;74.70;;;;;;8329523;28;20057;-63
2021/04/21 11:17:26;;;;;;;10.50;8.52;;;18.70;80.20;;;;;;8330911;28;20026;-63
2021/04/21 11:21:30;;;;;;;11.57;7.93;;;19.00;78.60;;;;;;8330825;28;20388;-63
2021/04/21 11:25:31;;;;;;;10.70;8.45;;;19.60;75.10;;;;;;8327274;28;20030;-63
2021/04/21 11:29:32;;;;;;;10.95;8.55;;;22.50;63.30;;;;;;8311509;28;20073;-63
2021/04/21 11:33:52;;;;;;;11.02;9.00;;;22.80;58.30;;;;;;8306214;28;20037;-64
2021/04/21 11:37:53;;;;;;;;;;;24.60;58.20;;;;;;8317311;28;20512;-64
2021/04/21 11:41:53;;;;;;;;;;;28.40;42.40;;;;;;8298986;28;19917;-64
2021/04/21 11:45:54;;;;;;;57.97;21.17;;;30.20;41.00;;;;;;8312198;28;20517;-64
2021/04/21 11:50:01;;;;;;;49.00;21.00;;;31.80;34.80;;;;;;8311710;28;20148;-64
2021/04/21 11:54:01;;;;;;;;;;;33.60;30.00;;;;;;8308157;28;20037;-64
2021/04/21 11:58:21;;;;;;;62.60;22.00;;;33.00;28.70;;;;;;8312492;28;20425;-65
2021/04/21 12:02:22;;;;;;;9.68;7.85;;;32.50;31.80;;;;;;8317125;28;20049;-64
2021/04/21 12:06:23;;;;;;;9.45;8.15;;;31.40;29.80;;;;;;8315855;28;20040;-64
2021/04/21 12:10:26;;;;;;;8.18;7.38;;;29.60;35.40;;;;;;8308702;28;20026;-65
2021/04/21 12:14:27;;;;;;;8.35;7.55;;;30.50;35.70;;;;;;8314383;28;20025;-65
2021/04/21 12:18:35;;;;;;;6.95;6.22;;;33.20;32.40;;;;;;8310331;28;20076;-66
2021/04/21 12:22:42;;;;;;;6.47;5.38;;;31.20;32.60;;;;;;8313287;28;20037;-65
2021/04/21 12:26:45;;;;;;;7.32;6.47;;;33.60;28.40;;;;;;8310758;28;20080;-65
2021/04/21 12:30:58;;;;;;;7.70;6.50;;;33.50;27.00;;;;;;8309993;28;20022;-66
2021/04/21 12:34:59;;;;;;;6.57;5.97;;;33.60;26.00;;;;;;8310813;28;20037;-65
2021/04/21 12:39:10;;;;;;;7.97;6.57;;;32.00;27.10;;;;;;8309494;28;20032;-65
2021/04/21 12:43:16;;;;;;;9.57;6.72;;;29.80;28.10;;;;;;8308651;28;20018;-65
2021/04/21 12:47:17;;;;;;;7.72;6.63;;;29.30;29.30;;;;;;8309442;28;20429;-65
2021/04/21 12:51:30;;;;;;;7.45;6.68;;;31.80;29.20;;;;;;8305208;28;20025;-65
2021/04/21 12:55:31;;;;;;;6.82;5.50;;;32.00;28.80;;;;;;8311333;28;20160;-65
2021/04/21 12:59:47;;;;;;;8.48;6.50;;;30.70;29.00;;;;;;8302148;28;20030;-65
2021/04/21 13:04:02;;;;;;;7.82;7.03;;;29.10;31.70;;;;;;8304294;28;20057;-65
2021/04/21 13:08:30;;;;;;;7.07;6.28;;;29.40;31.00;;;;;;8305212;28;20029;-65
2021/04/21 13:12:30;;;;;;;7.20;5.72;;;26.90;32.70;;;;;;8308757;28;20133;-64
2021/04/21 13:16:35;;;;;;;15.93;6.50;;;24.00;36.50;;;;;;8303652;28;20030;-65
2021/04/21 13:20:40;;;;;;;8.95;7.18;;;22.50;40.90;;;;;;8298350;28;20169;-64
2021/04/21 13:24:49;;;;;;;8.63;6.55;;;22.40;38.10;;;;;;8307937;28;20025;-65
2021/04/21 13:28:53;;;;;;;7.53;6.00;;;25.90;35.40;;;;;;8308831;28;20033;-64
2021/04/21 13:32:57;;;;;;;8.18;6.40;;;25.90;32.70;;;;;;8318956;28;20030;-68
2021/04/21 13:36:57;;;;;;;7.65;6.07;;;26.20;33.70;;;;;;8292220;28;20036;-69
2021/04/21 13:40:58;;;;;;;7.05;6.30;;;26.80;33.20;;;;;;8316219;28;20045;-70
2021/04/21 13:44:58;;;;;;;7.18;5.55;;;27.40;31.00;;;;;;8321028;28;20025;-69
2021/04/21 13:48:59;;;;;;;9.18;6.30;;;25.40;31.90;;;;;;8310709;28;20526;-67
2021/04/21 13:52:59;;;;;;;6.03;5.43;;;24.40;34.60;;;;;;8324230;28;20061;-68
2021/04/21 13:57:00;;;;;;;7.97;6.80;;;25.40;32.60;;;;;;8319839;28;20021;-68
2021/04/21 14:01:01;;;;;;;11.15;6.85;;;25.30;32.60;;;;;;8305991;28;20113;-64
2021/04/21 14:05:02;;;;;;;8.32;6.78;;;23.00;39.60;;;;;;8294335;28;20034;-65
2021/04/21 14:09:03;;;;;;;7.68;6.85;;;21.30;39.00;;;;;;8315113;28;20026;-64
2021/04/21 14:13:04;;;;;;;7.85;6.30;;;20.60;43.80;;;;;;8308925;28;20095;-65
2021/04/21 14:17:05;;;;;;;14.18;6.32;;;21.70;44.60;;;;;;8312582;28;20025;-64
2021/04/21 14:21:06;;;;;;;8.60;6.78;;;23.60;36.70;;;;;;8309772;28;20228;-65
2021/04/21 14:25:07;;;;;;;7.20;6.35;;;23.80;40.20;;;;;;8306717;28;20033;-66
2021/04/21 14:29:09;;;;;;;8.18;5.50;;;30.20;33.60;;;;;;8310881;28;20132;-65
2021/04/21 14:33:10;;;;;;;9.73;5.93;;;32.20;30.00;;;;;;8310223;28;20108;-66
2021/04/21 14:37:10;;;;;;;7.20;5.68;;;36.50;27.50;;;;;;8310405;28;20064;-66
2021/04/21 14:41:11;;;;;;;8.80;6.30;;;34.60;24.00;;;;;;8316712;28;20034;-66
2021/04/21 14:45:13;;;;;;;6.75;6.00;;;30.20;28.60;;;;;;8315725;28;20030;-64
2021/04/21 14:49:13;;;;;;;6.57;5.60;;;26.50;42.00;;;;;;8327995;28;20025;-65
2021/04/21 14:53:14;;;;;;;9.95;6.25;;;27.30;59.60;;;;;;8320284;28;20087;-66
2021/04/21 14:57:15;;;;;;;7.38;5.95;;;30.10;33.00;;;;;;8323379;28;20029;-66
2021/04/21 15:01:16;;;;;;;7.85;6.30;;;31.40;28.20;;;;;;8310887;28;20038;-65
2021/04/21 15:05:17;;;;;;;7.63;6.82;;;31.50;27.80;;;;;;8306808;28;20658;-66
2021/04/21 15:09:17;;;;;;;8.95;7.07;;;32.20;26.50;;;;;;8299265;28;20555;-67
2021/04/21 15:13:21;;;;;;;7.93;5.82;;;30.70;26.70;;;;;;8314794;28;20061;-65
2021/04/21 15:17:21;;;;;;;7.75;6.45;;;26.00;36.50;;;;;;8326181;28;20091;-65
2021/04/21 15:21:26;;;;;;;7.57;6.78;;;21.90;43.70;;;;;;8305927;28;20373;-65
2021/04/21 15:25:27;;;;;;;9.00;7.55;;;20.90;46.90;;;;;;8313323;28;20087;-65
2021/04/21 15:29:27;;;;;;;10.88;7.72;;;20.80;48.30;;;;;;8303397;28;20025;-66
2021/04/21 15:33:28;;;;;;;13.68;7.18;;;20.70;47.80;;;;;;8316725;28;20070;-65
2021/04/21 15:37:29;;;;;;;9.80;6.97;;;20.50;49.70;;;;;;8324722;28;20029;-64
2021/04/21 15:41:30;;;;;;;11.65;6.85;;;21.10;47.00;;;;;;8326001;28;20048;-66
2021/04/21 15:45:34;;;;;;;10.50;7.60;;;25.00;41.80;;;;;;8307030;28;20037;-66
2021/04/21 15:49:35;;;;;;;11.52;7.50;;;28.60;37.10;;;;;;8322968;28;20030;-64
2021/04/21 15:53:38;;;;;;;10.10;6.93;;;31.20;33.30;;;;;;8319074;28;20033;-66
2021/04/21 15:57:38;;;;;;;7.88;6.25;;;33.20;31.50;;;;;;8326955;28;20116;-66
2021/04/21 16:01:39;;;;;;;7.15;5.80;;;34.60;29.80;;;;;;8330056;28;20167;-65
2021/04/21 16:05:39;;;;;;;8.57;6.57;;;35.10;28.90;;;;;;8323450;28;20025;-66
2021/04/21 16:09:42;;;;;;;10.63;8.13;;;35.10;28.80;;;;;;8320108;28;20419;-66
2021/04/21 16:13:43;;;;;;;8.75;7.85;;;35.40;28.30;;;;;;8328127;28;20036;-65
2021/04/21 16:17:45;;;;;;;10.00;7.57;;;35.70;27.50;;;;;;8328567;28;20030;-66
2021/04/21 16:21:45;;;;;;;9.52;8.15;;;35.20;28.60;;;;;;8304366;28;20480;-66
2021/04/21 16:25:46;;;;;;;10.20;9.20;;;35.00;28.20;;;;;;8328260;28;20033;-66
2021/04/21 16:29:46;;;;;;;12.52;9.05;;;34.90;28.40;;;;;;8328362;28;20053;-65
2021/04/21 16:33:47;;;;;;;9.57;8.57;;;33.90;28.90;;;;;;8317602;28;20068;-65
2021/04/21 16:37:48;;;;;;;10.35;8.75;;;31.30;32.10;;;;;;8320507;28;20032;-65
2021/04/21 16:41:49;;;;;;;10.07;8.93;;;30.90;32.90;;;;;;8315386;28;20040;-65
2021/04/21 16:45:49;;;;;;;10.15;9.02;;;29.80;33.70;;;;;;8307860;28;20025;-64
2021/04/21 16:49:50;;;;;;;9.63;8.63;;;30.00;34.30;;;;;;8312712;28;20028;-65
2021/04/21 16:53:53;;;;;;;10.43;8.60;;;29.50;33.90;;;;;;8304434;28;20396;-65
2021/04/21 16:57:54;;;;;;;11.57;8.82;;;29.80;33.80;;;;;;8309546;28;20040;-64
2021/04/21 17:01:55;;;;;;;13.43;8.95;;;29.00;35.00;;;;;;8316797;28;20609;-64
2021/04/21 17:05:57;;;;;;;9.05;8.15;;;28.10;33.90;;;;;;8311824;28;20022;-64
2021/04/21 17:10:03;;;;;;;11.65;9.38;;;25.20;37.40;;;;;;8315334;28;20079;-63
2021/04/21 17:14:08;;;;;;;11.10;9.38;;;22.40;42.90;;;;;;8307965;28;20036;-63
2021/04/21 17:18:10;;;;;;;11.25;8.45;;;20.30;48.60;;;;;;8309223;28;20433;-63
2021/04/21 17:22:10;;;;;;;13.75;9.25;;;19.20;52.10;;;;;;8303402;28;20026;-63
2021/04/21 17:26:11;;;;;;;12.93;9.40;;;18.80;61.10;;;;;;8299099;28;20698;-64
2021/04/21 17:30:12;;;;;;;13.57;9.15;;;17.50;83.80;;;;;;8301770;28;20026;-65
2021/04/21 17:34:13;;;;;;;12.30;8.75;;;;;;;;;;8309644;28;20087;-66
2021/04/21 17:38:14;;;;;;;12.20;8.57;;;;;;;;;;8319603;28;20034;-66
2021/04/21 17:42:20;;;;;;;12.60;8.73;;;16.40;93.40;;;;;;8318589;28;20021;-65
2021/04/21 17:46:21;;;;;;;11.95;8.30;;;15.30;61.20;;;;;;8317268;28;20450;-66
2021/04/21 17:50:23;;;;;;;13.68;7.95;;;14.90;63.20;;;;;;8315090;28;20112;-66
2021/04/21 17:54:24;;;;;;;12.57;8.27;;;14.70;63.80;;;;;;8317755;28;20033;-66
2021/04/21 17:58:31;;;;;;;14.63;9.02;;;14.60;65.90;;;;;;8308297;28;20092;-65
2021/04/21 18:02:33;;;;;;;12.27;7.97;;;14.60;63.90;;;;;;8317688;28;20488;-65
2021/04/21 18:06:34;;;;;;;13.30;8.65;;;14.20;69.90;;;;;;8308480;28;20419;-66
2021/04/21 18:10:35;;;;;;;13.48;8.60;;;13.90;73.30;;;;;;8313548;28;20116;-66
2021/04/21 18:14:38;;;;;;;14.60;9.02;;;13.60;75.60;;;;;;8312654;28;20021;-67
2021/04/21 18:18:40;;;;;;;12.70;8.32;;;13.00;78.40;;;;;;8314964;28;20056;-67
2021/04/21 18:22:41;;;;;;;15.07;10.05;;;13.00;79.30;;;;;;8317508;28;20030;-66
2021/04/21 18:26:42;;;;;;;22.98;14.52;;;12.60;83.50;;;;;;8310313;28;20057;-66
2021/04/21 18:30:42;;;;;;;20.52;13.25;;;12.30;87.40;;;;;;8309711;28;20038;-66
2021/04/21 18:34:44;;;;;;;22.05;13.60;;;12.20;89.70;;;;;;8307980;28;20050;-65
2021/04/21 18:38:45;;;;;;;20.67;12.68;;;12.20;91.70;;;;;;8307844;28;20018;-65
2021/04/21 18:42:47;;;;;;;18.45;11.80;;;12.10;93.60;;;;;;8304871;28;20041;-65
2021/04/21 18:46:47;;;;;;;14.40;10.48;;;12.00;95.10;;;;;;8307523;28;20033;-66
2021/04/21 18:50:48;;;;;;;14.70;9.25;;;12.10;96.40;;;;;;8314601;28;20034;-65
2021/04/21 18:54:50;;;;;;;13.68;9.23;;;11.80;98.90;;;;;;8310644;28;20565;-65
2021/04/21 18:58:50;;;;;;;20.70;11.50;;;11.50;99.90;;;;;;8318809;28;20065;-65
2021/04/21 19:02:53;;;;;;;23.70;10.65;;;11.40;99.90;;;;;;8319926;28;20462;-65
2021/04/21 19:06:54;;;;;;;23.60;10.63;;;11.20;99.90;;;;;;8317833;28;20090;-65
2021/04/21 19:10:55;;;;;;;20.08;10.02;;;11.20;99.90;;;;;;8318250;28;20021;-66
2021/04/21 19:14:55;;;;;;;14.80;8.77;;;11.00;99.90;;;;;;8315267;28;20017;-66
2021/04/21 19:18:56;;;;;;;23.83;12.45;;;11.20;99.90;;;;;;8312210;28;20032;-66
2021/04/21 19:22:57;;;;;;;18.55;10.50;;;11.00;99.90;;;;;;8314018;28;20033;-65
2021/04/21 19:26:57;;;;;;;18.80;11.18;;;10.90;99.90;;;;;;8307087;28;20530;-65
2021/04/21 19:30:58;;;;;;;21.80;12.63;;;10.70;99.90;;;;;;8313172;28;20044;-65
2021/04/21 19:34:59;;;;;;;17.50;11.27;;;10.80;99.90;;;;;;8314667;28;20116;-65
2021/04/21 19:39:00;;;;;;;16.88;11.77;;;10.70;99.90;;;;;;8314434;28;20092;-65
2021/04/21 19:43:02;;;;;;;20.73;12.50;;;10.40;99.90;;;;;;8317252;28;20026;-66
2021/04/21 19:47:03;;;;;;;23.42;11.75;;;10.30;99.90;;;;;;8320209;28;20116;-65
2021/04/21 19:51:03;;;;;;;21.20;12.90;;;10.00;99.90;;;;;;8323756;28;20037;-65
2021/04/21 19:55:07;;;;;;;19.38;11.10;;;10.40;99.90;;;;;;8324256;28;20724;-65
2021/04/21 19:59:08;;;;;;;22.90;12.73;;;10.10;99.90;;;;;;8311530;28;20034;-65
2021/04/21 20:03:10;;;;;;;19.25;12.23;;;9.80;99.90;;;;;;8310813;28;20068;-65
2021/04/21 20:07:11;;;;;;;21.45;12.85;;;9.60;99.90;;;;;;8311436;28;20172;-66
2021/04/21 20:11:13;;;;;;;20.85;11.70;;;9.50;99.90;;;;;;8313046;28;20085;-65
2021/04/21 20:15:14;;;;;;;21.83;12.18;;;9.70;99.90;;;;;;8303592;28;20109;-65
2021/04/21 20:19:14;;;;;;;19.77;10.60;;;9.60;99.90;;;;;;8328599;28;20021;-65
2021/04/21 20:23:15;;;;;;;20.02;11.05;;;9.30;99.90;;;;;;8327319;28;20041;-65
2021/04/21 20:27:15;;;;;;;23.63;12.15;;;9.40;99.90;;;;;;8328163;28;20507;-65
2021/04/21 20:31:17;;;;;;;21.67;12.15;;;9.10;99.90;;;;;;8328514;28;20025;-65
2021/04/21 20:35:19;;;;;;;21.17;11.60;;;8.80;99.90;;;;;;8312041;28;20090;-65
2021/04/21 20:39:20;;;;;;;21.10;11.57;;;8.80;99.90;;;;;;8328448;28;20590;-65
2021/04/21 20:43:20;;;;;;;21.15;12.15;;;8.80;99.90;;;;;;8327440;28;20025;-65
2021/04/21 20:47:21;;;;;;;19.55;11.40;;;8.60;99.90;;;;;;8327751;28;20173;-65
2021/04/21 20:51:22;;;;;;;18.98;11.98;;;8.40;99.90;;;;;;8327661;28;20018;-65
2021/04/21 20:55:23;;;;;;;26.42;13.23;;;8.60;99.90;;;;;;8310378;28;20034;-65
2021/04/21 20:59:24;;;;;;;25.90;14.45;;;8.60;99.90;;;;;;8294281;28;20022;-65
2021/04/21 21:03:24;;;;;;;31.27;17.20;;;8.40;99.90;;;;;;8295077;28;20515;-65